createdAt,value
2023-03-14T00:02:35.558Z,11.90
2023-03-14T00:05:38.468Z,11.88
2023-03-14T00:08:41.330Z,11.97
2023-03-14T00:11:45.725Z,11.94
2023-03-14T00:14:48.375Z,11.93
2023-03-14T00:17:51.218Z,11.77
2023-03-14T00:20:53.955Z,11.87
2023-03-14T00:23:56.821Z,11.83
2023-03-14T00:27:01.010Z,11.77
2023-03-14T00:30:03.926Z,11.77
2023-03-14T00:33:06.741Z,11.84
2023-03-14T00:36:12.320Z,11.85
2023-03-14T00:39:15.003Z,11.83
2023-03-14T00:42:19.090Z,11.76
2023-03-14T00:45:21.857Z,11.89
2023-03-14T00:48:24.519Z,11.86
2023-03-14T00:51:27.284Z,11.81
2023-03-14T00:54:30.123Z,11.68
2023-03-14T00:57:34.319Z,11.52
2023-03-14T01:00:37.611Z,11.73
2023-03-14T01:03:40.466Z,11.80
2023-03-14T01:06:43.345Z,11.83
2023-03-14T01:09:46.136Z,11.81
2023-03-14T01:12:50.454Z,11.74
2023-03-14T01:15:53.499Z,11.82
2023-03-14T01:18:57.221Z,11.78
2023-03-14T01:22:00.203Z,11.85
2023-03-14T01:25:03.577Z,11.77
2023-03-14T01:28:08.589Z,11.79
2023-03-14T01:31:12.696Z,11.86
2023-03-14T01:34:15.486Z,11.82
2023-03-14T01:37:18.310Z,11.91
2023-03-14T01:40:21.442Z,11.83
2023-03-14T01:43:26.500Z,11.99
2023-03-14T01:46:38.606Z,11.90
2023-03-14T01:49:41.937Z,11.78
2023-03-14T01:52:49.576Z,11.77
2023-03-14T01:55:55.201Z,11.95
2023-03-14T01:59:01.498Z,11.90
2023-03-14T02:02:08.544Z,11.95
2023-03-14T02:05:12.557Z,11.91
2023-03-14T02:08:18.857Z,11.85
2023-03-14T02:11:22.026Z,11.81
2023-03-14T02:14:32.407Z,11.85
2023-03-14T02:17:36.668Z,11.85
2023-03-14T02:20:46.897Z,11.81
2023-03-14T02:23:55.600Z,11.82
2023-03-14T02:27:23.831Z,11.78
2023-03-14T02:30:29.141Z,11.69
2023-03-14T02:33:31.986Z,11.69
2023-03-14T02:36:34.861Z,11.66
2023-03-14T02:39:40.563Z,11.55
2023-03-14T02:42:44.626Z,11.55
2023-03-14T02:45:48.885Z,11.49
2023-03-14T02:48:55.428Z,11.57
2023-03-14T02:51:58.324Z,11.56
2023-03-14T02:55:01.070Z,11.54
2023-03-14T02:58:05.126Z,11.56
2023-03-14T03:01:08.432Z,11.47
2023-03-14T03:04:11.322Z,11.52
2023-03-14T03:07:14.203Z,11.59
2023-03-14T03:10:17.295Z,11.58
2023-03-14T03:13:21.751Z,11.53
2023-03-14T03:16:24.641Z,11.61
2023-03-14T03:19:27.318Z,11.62
2023-03-14T03:22:30.136Z,11.60
2023-03-14T03:25:33.110Z,11.60
2023-03-14T03:28:37.236Z,11.56
2023-03-14T03:31:40.289Z,11.53
2023-03-14T03:34:43.138Z,11.58
2023-03-14T03:37:46.046Z,11.67
2023-03-14T03:40:48.737Z,11.59
2023-03-14T03:43:52.861Z,11.53
2023-03-14T03:46:55.550Z,11.66
2023-03-14T03:49:58.264Z,11.60
2023-03-14T03:53:01.331Z,11.64
2023-03-14T03:56:04.240Z,11.58
2023-03-14T03:59:08.580Z,11.54
2023-03-14T04:02:11.464Z,11.50
2023-03-14T04:05:14.452Z,11.51
2023-03-14T04:08:17.210Z,11.46
2023-03-14T04:11:20.016Z,11.44
2023-03-14T04:14:24.600Z,11.48
2023-03-14T04:17:27.379Z,11.36
2023-03-14T04:20:30.090Z,11.56
2023-03-14T04:23:32.784Z,11.39
2023-03-14T04:26:35.769Z,11.43
2023-03-14T04:29:39.990Z,11.21
2023-03-14T04:32:42.728Z,11.29
2023-03-14T04:35:45.885Z,11.30
2023-03-14T04:38:48.604Z,11.38
2023-03-14T04:41:51.443Z,11.29
2023-03-14T04:44:55.592Z,11.15
2023-03-14T04:47:58.320Z,11.16
2023-03-14T04:51:01.220Z,11.02
2023-03-14T04:54:04.010Z,11.01
2023-03-14T04:57:06.794Z,11.03
2023-03-14T05:00:12.628Z,11.09
2023-03-14T05:03:16.932Z,11.28
2023-03-14T05:06:19.987Z,11.28
2023-03-14T05:09:22.678Z,11.32
2023-03-14T05:12:25.527Z,11.29
2023-03-14T05:15:29.674Z,11.31
2023-03-14T05:18:32.523Z,11.18
2023-03-14T05:21:35.369Z,11.14
2023-03-14T05:24:38.179Z,10.99
2023-03-14T05:27:40.911Z,11.00
2023-03-14T05:30:44.990Z,11.02
2023-03-14T05:33:47.787Z,10.98
2023-03-14T05:36:50.482Z,11.07
2023-03-14T05:39:53.288Z,11.05
2023-03-14T05:42:56.027Z,11.07
2023-03-14T05:46:00.094Z,11.22
2023-03-14T05:49:02.778Z,11.24
2023-03-14T05:52:05.536Z,11.28
2023-03-14T05:55:08.787Z,11.14
2023-03-14T05:58:11.405Z,11.13
2023-03-14T06:01:15.420Z,11.11
2023-03-14T06:04:18.067Z,11.20
2023-03-14T06:07:20.725Z,11.09
2023-03-14T06:10:23.334Z,11.05
2023-03-14T06:13:26.022Z,11.05
2023-03-14T06:16:30.141Z,11.07
2023-03-14T06:19:32.877Z,11.16
2023-03-14T06:22:35.466Z,11.12
2023-03-14T06:25:38.454Z,11.06
2023-03-14T06:28:41.417Z,11.10
2023-03-14T06:31:45.515Z,11.01
2023-03-14T06:34:48.732Z,11.03
2023-03-14T06:37:51.590Z,11.22
2023-03-14T06:40:54.405Z,11.21
2023-03-14T06:43:57.214Z,11.50
2023-03-14T06:47:01.179Z,11.89
2023-03-14T06:50:04.034Z,12.82
2023-03-14T06:53:09.611Z,14.07
2023-03-14T06:56:14.634Z,14.95
2023-03-14T06:59:22.943Z,16.08
2023-03-14T07:02:42.555Z,17.50
2023-03-14T07:05:52.830Z,18.49
2023-03-14T07:08:59.668Z,19.91
2023-03-14T07:12:05.957Z,21.18
2023-03-14T07:18:41.007Z,23.14
2023-03-14T07:21:49.866Z,24.16
2023-03-14T07:24:57.011Z,24.44
2023-03-14T07:28:05.032Z,22.87
2023-03-14T07:31:11.542Z,20.39
2023-03-14T07:34:18.892Z,18.41
2023-03-14T07:37:25.133Z,17.35
2023-03-14T07:40:31.025Z,16.66
2023-03-14T07:43:40.828Z,15.74
2023-03-14T07:46:49.673Z,15.27
2023-03-14T07:50:02.730Z,14.86
2023-03-14T07:53:08.336Z,14.57
2023-03-14T07:56:14.205Z,14.38
2023-03-14T07:59:21.368Z,14.20
2023-03-14T08:02:30.263Z,13.94
2023-03-14T08:05:39.075Z,13.80
2023-03-14T08:08:46.552Z,13.76
2023-03-14T08:11:52.434Z,13.80
2023-03-14T08:14:58.176Z,13.79
2023-03-14T08:18:04.671Z,13.76
2023-03-14T08:21:15.113Z,13.91
2023-03-14T08:24:21.190Z,13.91
2023-03-14T08:27:27.404Z,14.00
2023-03-14T08:30:36.172Z,13.99
2023-03-14T08:33:41.988Z,14.02
2023-03-14T08:36:51.267Z,14.11
2023-03-14T08:39:57.133Z,14.16
2023-03-14T08:43:06.514Z,14.14
2023-03-14T08:46:14.009Z,14.03
2023-03-14T08:49:22.455Z,14.06
2023-03-14T08:52:30.278Z,14.00
2023-03-14T08:55:38.978Z,14.07
2023-03-14T08:58:46.958Z,14.24
2023-03-14T09:01:53.012Z,14.35
2023-03-14T09:04:59.065Z,14.33
2023-03-14T09:08:07.776Z,14.41
2023-03-14T09:11:13.708Z,14.43
2023-03-14T09:14:21.929Z,14.41
2023-03-14T09:17:28.880Z,14.37
2023-03-14T09:20:54.031Z,14.25
2023-03-14T09:24:00.496Z,14.13
2023-03-14T09:27:16.344Z,14.07
2023-03-14T09:30:29.984Z,13.89
2023-03-14T09:33:36.005Z,13.67
2023-03-14T09:36:43.173Z,13.71
2023-03-14T09:39:53.346Z,13.73
2023-03-14T09:43:00.497Z,13.87
2023-03-14T09:46:08.461Z,13.82
2023-03-14T09:49:17.450Z,13.85
2023-03-14T09:52:27.129Z,13.76
2023-03-14T09:55:41.689Z,13.82
2023-03-14T09:59:00.446Z,14.00
2023-03-14T10:02:23.927Z,14.48
2023-03-14T10:05:52.260Z,14.91
2023-03-14T10:09:49.364Z,15.40
2023-03-14T10:13:24.514Z,15.52
2023-03-14T10:16:44.977Z,15.34
2023-03-14T10:20:03.144Z,15.57
2023-03-14T10:23:41.577Z,15.94
2023-03-14T10:27:07.291Z,16.28
2023-03-14T10:30:39.744Z,16.25
2023-03-14T10:33:46.213Z,15.77
2023-03-14T10:37:12.250Z,15.64
2023-03-14T10:40:35.561Z,15.56
2023-03-14T10:43:49.223Z,15.78
2023-03-14T10:47:08.967Z,15.95
2023-03-14T10:50:34.596Z,15.86
2023-03-14T10:53:55.735Z,15.62
2023-03-14T10:57:09.429Z,15.25
2023-03-14T11:03:55.190Z,14.79
2023-03-14T11:07:08.755Z,14.71
2023-03-14T11:10:23.844Z,14.54
2023-03-14T11:13:40.060Z,14.37
2023-03-14T11:17:03.521Z,14.31
2023-03-14T11:20:36.747Z,14.10
2023-03-14T11:24:06.839Z,13.88
2023-03-14T11:27:22.961Z,13.64
2023-03-14T11:30:40.512Z,13.38
2023-03-14T11:34:00.591Z,13.24
2023-03-14T11:37:34.901Z,13.19
2023-03-14T11:40:58.159Z,13.11
2023-03-14T11:44:32.395Z,13.04
2023-03-14T11:47:58.190Z,13.02
2023-03-14T11:51:16.716Z,13.05
2023-03-14T11:54:45.086Z,12.95
2023-03-14T11:58:09.173Z,12.87
2023-03-14T12:01:29.345Z,12.76
2023-03-14T12:05:03.762Z,12.81
2023-03-14T12:12:08.098Z,13.17
2023-03-14T12:15:24.246Z,13.13
2023-03-14T12:18:41.492Z,13.13
2023-03-14T12:21:54.026Z,13.04
2023-03-14T12:25:15.964Z,13.07
2023-03-14T12:28:35.860Z,13.09
2023-03-14T12:31:47.665Z,13.03
2023-03-14T12:34:58.424Z,12.84
2023-03-14T12:38:14.346Z,12.93
2023-03-14T12:41:48.341Z,13.01
2023-03-14T12:44:56.502Z,12.71
2023-03-14T12:48:16.888Z,12.79
2023-03-14T12:51:32.467Z,12.93
2023-03-14T12:55:02.490Z,12.98
2023-03-14T12:58:21.088Z,13.16
2023-03-14T13:01:33.615Z,13.30
2023-03-14T13:05:04.656Z,13.57
2023-03-14T13:08:24.038Z,13.71
2023-03-14T13:11:31.300Z,13.47
2023-03-14T13:14:50.171Z,13.25
2023-03-14T13:43:09.195Z,12.31
2023-03-14T13:46:37.198Z,11.97
2023-03-14T13:49:52.880Z,11.72
2023-03-14T13:53:03.458Z,11.80
2023-03-14T13:56:17.072Z,11.74
2023-03-14T13:59:32.269Z,11.65
2023-03-14T14:02:48.295Z,11.50
2023-03-14T14:13:48.874Z,11.16
2023-03-14T14:17:01.920Z,11.01
2023-03-14T14:20:29.920Z,10.97
2023-03-14T14:23:58.399Z,10.99
2023-03-14T14:27:05.993Z,10.92
2023-03-14T14:30:46.082Z,10.88
2023-03-14T14:34:23.706Z,10.90
2023-03-14T14:37:37.685Z,10.86
2023-03-14T14:41:10.536Z,10.75
2023-03-14T14:44:38.536Z,10.78
2023-03-14T14:47:57.953Z,10.71
2023-03-14T14:51:09.144Z,10.70
2023-03-14T14:54:22.795Z,10.75
2023-03-14T14:57:31.923Z,10.73
2023-03-14T15:00:50.909Z,10.74
2023-03-14T15:04:04.754Z,10.80
2023-03-14T15:07:23.017Z,10.80
2023-03-14T15:10:34.408Z,10.85
2023-03-14T15:13:46.233Z,11.01
2023-03-14T15:16:54.751Z,11.12
2023-03-14T15:20:00.496Z,11.10
2023-03-14T15:23:08.190Z,11.17
2023-03-14T15:26:22.416Z,11.15
2023-03-14T15:29:35.327Z,11.14
2023-03-14T15:32:46.288Z,10.97
2023-03-14T15:36:11.562Z,10.89
2023-03-14T15:39:17.200Z,10.79
2023-03-14T15:42:26.509Z,10.88
2023-03-14T15:45:34.534Z,10.86
2023-03-14T15:48:48.371Z,10.82
2023-03-14T15:51:57.974Z,10.82
2023-03-14T15:55:07.824Z,10.86
2023-03-14T15:58:23.498Z,10.90
2023-03-14T16:01:30.646Z,10.94
2023-03-14T16:04:40.257Z,10.90
2023-03-14T16:07:47.600Z,10.84
2023-03-14T16:10:56.460Z,10.67
2023-03-14T16:14:06.566Z,10.64
2023-03-14T16:17:17.084Z,10.56
2023-03-14T16:20:47.116Z,10.49
2023-03-14T16:24:04.742Z,10.48
2023-03-14T16:27:11.720Z,10.47
2023-03-14T16:30:19.751Z,10.45
2023-03-14T16:33:27.007Z,10.43
2023-03-14T16:36:33.419Z,10.39
2023-03-14T16:40:07.416Z,10.38
2023-03-14T16:46:42.197Z,10.28
2023-03-14T16:49:55.872Z,10.26
2023-03-14T16:53:11.862Z,10.24
2023-03-14T16:56:42.441Z,10.31
2023-03-14T17:04:43.248Z,10.17
2023-03-14T17:08:28.476Z,10.02
2023-03-14T17:11:47.092Z,9.83
2023-03-14T17:15:19.154Z,9.67
2023-03-14T17:19:11.269Z,9.54
2023-03-14T19:20:59.246Z,8.40
2023-03-14T19:24:08.387Z,8.36
2023-03-14T19:27:20.511Z,8.37
2023-03-14T19:30:30.709Z,8.41
2023-03-14T19:33:41.744Z,8.39
2023-03-14T19:36:51.017Z,8.29
2023-03-14T19:39:59.059Z,8.23
2023-03-14T19:43:19.564Z,8.16
2023-03-14T19:46:31.816Z,8.03
2023-03-14T19:49:53.253Z,7.98
2023-03-14T19:53:04.645Z,8.10
2023-03-14T19:56:15.138Z,8.17
2023-03-14T19:59:23.124Z,8.20
2023-03-14T20:02:32.964Z,8.26
2023-03-14T20:05:45.482Z,8.33
2023-03-14T20:08:53.861Z,8.40
2023-03-14T20:12:01.489Z,8.51
2023-03-14T20:15:09.932Z,8.51
2023-03-14T20:18:19.860Z,8.45
2023-03-14T20:21:25.942Z,8.45
2023-03-14T20:24:34.689Z,8.56
2023-03-14T20:27:44.795Z,8.52
2023-03-14T20:30:53.266Z,8.53
2023-03-14T20:34:04.293Z,8.40
2023-03-14T20:37:14.277Z,8.35
2023-03-14T20:40:24.870Z,8.26
2023-03-14T20:43:35.314Z,8.20
2023-03-14T20:46:45.217Z,8.23
2023-03-14T20:49:54.221Z,8.23
2023-03-14T20:53:03.043Z,8.27
2023-03-14T20:56:11.326Z,8.33
2023-03-14T20:59:18.123Z,8.25
2023-03-14T21:02:24.652Z,8.21
2023-03-14T21:05:33.213Z,8.29
2023-03-14T21:08:40.661Z,8.26
2023-03-14T21:11:49.478Z,8.33
2023-03-14T21:14:58.454Z,8.31
2023-03-14T21:18:12.122Z,8.35
2023-03-14T21:21:22.788Z,8.36
2023-03-14T21:24:33.626Z,8.27
2023-03-14T21:27:55.045Z,8.26
2023-03-14T21:31:12.247Z,8.29
2023-03-14T21:34:27.660Z,8.20
2023-03-14T21:37:37.180Z,8.17
2023-03-14T21:40:44.200Z,8.08
2023-03-14T21:43:53.470Z,8.06
2023-03-14T21:46:58.854Z,7.99
2023-03-14T21:50:05.387Z,7.86
2023-03-14T21:53:12.299Z,7.72
2023-03-14T21:56:28.332Z,7.63
2023-03-14T21:59:39.076Z,7.55
2023-03-14T22:02:53.889Z,7.46
2023-03-14T22:06:11.810Z,7.39
2023-03-14T22:09:18.788Z,7.31
2023-03-14T22:12:25.449Z,7.32
2023-03-14T22:15:33.677Z,7.36
2023-03-14T22:18:38.124Z,7.32
2023-03-14T22:21:43.267Z,7.15
2023-03-14T22:24:47.807Z,6.79
2023-03-14T22:27:54.715Z,6.38
2023-03-14T22:31:03.517Z,6.19
2023-03-14T22:34:08.604Z,6.04
2023-03-14T22:37:14.704Z,5.79
2023-03-14T22:40:19.142Z,5.55
2023-03-14T22:43:24.020Z,5.47
2023-03-14T22:46:29.881Z,5.45
2023-03-14T22:49:34.180Z,5.35
2023-03-14T22:52:39.327Z,5.23
2023-03-14T22:55:43.816Z,5.10
2023-03-14T22:58:50.230Z,5.03
2023-03-14T23:01:54.971Z,4.93
2023-03-14T23:04:58.496Z,4.93
2023-03-14T23:08:05.158Z,4.92
2023-03-14T23:11:15.972Z,4.85
2023-03-14T23:14:27.405Z,4.80
2023-03-14T23:21:33.502Z,4.76
2023-03-14T23:24:41.176Z,4.75
2023-03-14T23:27:50.056Z,4.69
2023-03-14T23:31:01.241Z,4.70
2023-03-14T23:34:10.295Z,4.66
2023-03-14T23:37:18.151Z,4.69
2023-03-14T23:40:25.905Z,4.62
2023-03-14T23:43:33.164Z,4.62
2023-03-14T23:46:43.016Z,4.68
2023-03-14T23:49:52.762Z,4.62
2023-03-14T23:53:11.572Z,4.70
2023-03-14T23:56:24.271Z,4.69
2023-03-14T23:59:33.229Z,4.76
